We Are Winnipeg.

Screenshot by Justin Martin

Come explore the heart of Canada.  

  Top Controllers this Month

Benjamin Cook 1214000
33:25

Dylan 1310670
13:25

Liam Shaw 1398752
13:01

Kathryn 1544489
12:04

Tavis Harrison 1444863
10:37

  Online Controllers

No controllers online.

  Weather

CYWG - Winnipeg / James Armstrong Richardson International Airport   VFR
CYWG 290100Z 16017G23KT 15SM BKN150 15/02 A3015 RMK AC5 SLP220 DENSITY ALT 800FT

CYXE - Saskatoon John G. Diefenbaker International Airport   VFR
CYXE 290100Z 05003KT 15SM SKC 22/06 A2989 RMK SLP132 DENSITY ALT 2900FT

CYQT - Thunder Bay Airport   VFR
CYQT 290100Z 00000KT 15SM FEW270 06/02 A3041 RMK CI1 SLP312

CYQR - Regina International Airport   VFR
CYQR 290100Z 13009KT 15SM FEW300 19/07 A2993 RMK CI1 CI TR SLP149 DENSITY ALT 2800FT

CYMJ - Moose Jaw Air Vice Marshal C. M. McEwen Airport   VFR
CYMJ 290025Z 15005KT 10SM FEW300 26/04 A2991 RMK CI2 HZ LAST OBS/NEXT 291000 UTC SLP128

CYPG - Portage-la-Prairie / Southport Airport   VFR
CYPG 290100Z 15012KT 15SM BKN120 16/04 A3012 RMK ACC5 CB ASOCTD OCNL DIST LTNG NE QUAD SH N-SE SLP206